This is the latest recevied weather packets stored in our database for station/object S57D-6. If no packets are shown the sender has not sent any weather packets the latest 10 day(s).
| Time | Temp. | Humidity | Pressure | Rain* | Wind** | Luminosity | Snow |
|---|---|---|---|---|---|---|---|
| 1777578720 | 6.67° C | 58% | 1025.9 hPa | 0 mm | - | - | - |
| 1777578119 | 7.22° C | 57% | 1025.7 hPa | 0 mm | - | - | - |
| 1777577820 | 7.22° C | 56% | 1025.7 hPa | 0 mm | - | - | - |
| 1777577519 | 7.78° C | 56% | 1025.6 hPa | 0 mm | - | - | - |
| 1777577219 | 7.78° C | 53% | 1025.6 hPa | 0 mm | - | - | - |
| 1777576918 | 7.78° C | 51% | 1025.5 hPa | 0 mm | - | - | - |
| 1777576619 | 8.33° C | 51% | 1025.4 hPa | 0 mm | - | - | - |
| 1777576318 | 8.33° C | 50% | 1025.3 hPa | 0 mm | - | - | - |
| 1777576019 | 8.89° C | 50% | 1025.3 hPa | 0 mm | - | - | - |
| 1777575717 | 8.89° C | 49% | 1025.2 hPa | 0 mm | - | - | - |
| 1777575418 | 8.89° C | 49% | 1025.2 hPa | 0 mm | - | - | - |
| 1777575116 | 9.44° C | 47% | 1025.1 hPa | 0 mm | - | - | - |
| 1777574516 | 9.44° C | 46% | 1025.1 hPa | 0 mm | - | - | - |
| 1777574217 | 10° C | 44% | 1024.8 hPa | 0 mm | - | - | - |
| 1777573915 | 10° C | 44% | 1024.8 hPa | 0 mm | - | - | - |
| 1777573315 | 11.11° C | 42% | 1024.4 hPa | 0 mm | - | - | - |
| 1777573016 | 11.11° C | 41% | 1024.4 hPa | 0 mm | - | - | - |
| 1777572714 | 11.67° C | 39% | 1024.3 hPa | 0 mm | - | - | - |
| 1777572418 | 11.67° C | 40% | 1024.2 hPa | 0 mm | - | - | - |
| 1777572114 | 11.67° C | 39% | 1024.1 hPa | 0 mm | - | - | - |
| 1777571814 | 11.67° C | 39% | 1023.9 hPa | 0 mm | - | - | - |
| 1777571513 | 12.22° C | 38% | 1023.9 hPa | 0 mm | - | - | - |
| 1777571214 | 12.22° C | 38% | 1024 hPa | 0 mm | - | - | - |
| 1777570913 | 12.78° C | 38% | 1023.9 hPa | 0 mm | - | - | - |
| 1777570312 | 12.78° C | 38% | 1023.9 hPa | 0 mm | - | - | - |
* Rain latest hour (hover to see other rain measurements)
** Current wind speed in m/s (hover to see current wind gust speed)